Ship Status Report: callsign AMOUK35

sailwx.info

Track history (hours):
 
Tides and Currents Weather Stations Pressure Air Temp Water Temp Dewpoint Dewpoint Depression Visibility Wind Speed Wind Dir Waves Ship Positions

Callsign AMOUK35 (name unknown)

Last reported at 2016-May-31 21:00 UTC. Time now 2016-May-31 21:57 UTC.
Position N 57°00' W 007°18'.

Barometer 1029.0 mb
Air temperature 10.0 ° C

Date/timePositionNaut miles runAvg speedWind from/ knotsBaromVisibWave heightAir tempDewpointWater temp
2016-May-31 21:00N 57°00' W 007°18'0 0.0 1029.0 10.0
2016-May-31 20:00N 57°00' W 007°18'0 0.0 1028.3 10.3
2016-May-31 19:00N 57°00' W 007°18'0 0.0 1029.1 10.8
2016-May-31 18:00N 57°00' W 007°18'0 0.0 1028.5 10.9
2016-May-31 17:00N 57°00' W 007°18'6 6.0 1027.2 10.5
2016-May-31 16:00N 56°54' W 007°18'1212.0 1027.1 10.8
2016-May-31 15:00N 56°42' W 007°18'1212.0 1027.3 11.0
2016-May-31 14:00N 56°30' W 007°18'6 6.0 1027.6 11.0
2016-May-31 13:00N 56°24' W 007°18'1212.5 1028.0 10.9
2016-May-31 12:00N 56°12' W 007°12'9 9.0 1027.5 10.8
2016-May-31 11:00N 56°06' W 007°00'7 6.9 1026.7 10.9
2016-May-31 10:00N 56°00' W 006°54'1413.8 1026.6 11.1
2016-May-31 09:00N 55°48' W 006°42'9 9.0 1026.5 10.6
2016-May-31 08:00N 55°42' W 006°30'3 3.4 1026.2 10.6
2016-May-31 07:00N 55°42' W 006°24'0 0.0 1026.2 11.3
2016-May-31 06:00N 55°42' W 006°24'0 0.0 1025.9 10.7
2016-May-31 05:00N 55°42' W 006°24'0 0.0 1025.4 10.5
2016-May-31 04:00N 55°42' W 006°24'0 0.0 1025.2 10.2
2016-May-31 03:00N 55°42' W 006°24'0 0.0 1025.3 10.2
2016-May-31 02:00N 55°42' W 006°24'0 0.0 1025.3 10.7
2016-May-31 01:00N 55°42' W 006°24'0 0.0 1025.2 10.8
2016-May-31 00:00N 55°42' W 006°24'0 0.0 1025.1 11.0
2016-May-30 23:00N 55°42' W 006°24'0 0.0 1025.1 11.1
2016-May-30 22:00N 55°42' W 006°24'0 0.0 1025.0 11.6
2016-May-30 21:00N 55°42' W 006°24'0 0.0 1024.6 12.2
2016-May-30 20:00N 55°42' W 006°24'0 0.0 1024.3 13.1
2016-May-30 19:00N 55°42' W 006°24'0 0.0 1024.0 13.7
2016-May-30 18:00N 55°42' W 006°24'6 6.0 1023.9 14.4
2016-May-30 17:00N 55°36' W 006°24'9 9.1 1023.7 11.9
2016-May-30 16:00N 55°30' W 006°12'9 9.1 1023.2 13.6
2016-May-30 15:00N 55°24' W 006°00'7 6.9 1023.2 11.5
2016-May-30 14:00N 55°18' W 005°54'7 6.8 1023.8 10.6
2016-May-30 13:00N 55°18' W 005°42'1010.2 1023.1 10.9
2016-May-30 12:00N 55°18' W 005°24'9 9.1 1023.3 12.3
2016-May-30 11:00N 55°24' W 005°12'1010.2 1023.2 12.1
2016-May-30 10:00N 55°24' W 004°54'9 9.1 1022.5 11.5
2016-May-30 09:00N 55°30' W 004°42'0 0.0 1022.1 14.5
2016-May-30 08:00N 55°30' W 004°42'0 0.0 1022.1 12.6
2016-May-30 07:00N 55°30' W 004°42'0 0.0 1021.7 9.8
2016-May-30 06:00N 55°30' W 004°42'0 0.0 1021.3 9.0
2016-May-30 05:00N 55°30' W 004°42'0 0.0 1021.1 9.1
2016-May-30 04:00N 55°30' W 004°42'0 0.0 1020.7 9.7
2016-May-30 03:00N 55°30' W 004°42'0 0.0 1020.5 10.1
2016-May-30 02:00N 55°30' W 004°42'0 0.0 1020.4 10.6
2016-May-30 01:00N 55°30' W 004°42'0 0.0 1020.3 11.4
2016-May-30 00:00N 55°30' W 004°42'0 0.0 1020.1 11.6
2016-May-29 23:00N 55°30' W 004°42'0 0.0 1019.7 12.2
2016-May-29 22:00N 55°30' W 004°42'0 0.0 1019.1 13.2
2016-May-29 21:00N 55°30' W 004°42'0 0.0 1018.6 13.4
2016-May-29 20:00N 55°30' W 004°42'0 0.0 1018.1 15.8
2016-May-29 19:00N 55°30' W 004°42'0 0.0 1017.7 15.3
2016-May-29 18:00N 55°30' W 004°42'7 6.8 1017.4 14.8
2016-May-29 17:00N 55°30' W 004°54'9 9.1 1017.4 17.3
2016-May-29 16:00N 55°24' W 005°06'0 0.0 1017.6 14.2
2016-May-29 15:00N 55°24' W 005°06'0 0.0 1017.7 14.1
2016-May-29 14:00N 55°24' W 005°06'0 0.0 1017.9 14.3
2016-May-29 13:00N 55°24' W 005°06'0 0.0 1017.8 13.0
2016-May-29 12:00N 55°24' W 005°06'1010.2 1017.5 11.2
2016-May-29 11:00N 55°24' W 005°24'3 3.4 1017.5 10.7
2016-May-29 10:00N 55°24' W 005°30'0 0.0 1017.3 11.1
2016-May-29 09:00N 55°24' W 005°30'0 0.0 1017.2 12.7
2016-May-29 08:00N 55°24' W 005°30'0 0.0 1016.9 12.3
2016-May-29 07:00N 55°24' W 005°30'0 0.0 1016.6 12.5
2016-May-29 06:00N 55°24' W 005°30'0 0.0 1016.2 13.3
2016-May-29 05:00N 55°24' W 005°30'0 0.0 1016.0 11.0
2016-May-29 04:00N 55°24' W 005°30'0 0.0 1015.9 10.0
2016-May-29 03:00N 55°24' W 005°30'0 0.0 1015.9 10.1
2016-May-29 02:00N 55°24' W 005°30'0 0.0 1016.0 10.1
2016-May-29 01:00N 55°24' W 005°30'0 0.0 1016.3 10.2
2016-May-29 00:00N 55°24' W 005°30'0 0.0 1016.5 11.0
2016-May-28 23:00N 55°24' W 005°30'0 0.0 1016.4 11.4
2016-May-28 22:00N 55°24' W 005°30'0 0.0 1016.4 12.0
2016-May-28 21:00N 55°24' W 005°30'0 0.0 1016.2 12.6
2016-May-28 20:00N 55°24' W 005°30'0 0.0 1015.9 13.4
2016-May-28 19:00N 55°24' W 005°30'0 0.0 1016.0 13.6
2016-May-28 18:00N 55°24' W 005°30'0 0.0 1015.9 13.7
2016-May-28 17:00N 55°24' W 005°30'0 0.0 1015.9 13.8
2016-May-28 16:00N 55°24' W 005°30'0 0.0 1016.5 13.6
2016-May-28 15:00N 55°24' W 005°30'7 6.9 1016.7 12.4
2016-May-28 14:00N 55°18' W 005°36'0 0.0 1017.1 11.8
2016-May-28 13:00N 55°18' W 005°36'0 0.0 1017.4 11.5
2016-May-28 12:00N 55°18' W 005°36'0 0.0 1017.5 11.7
2016-May-28 11:00N 55°18' W 005°36'7 6.8 1017.6 11.0
2016-May-28 10:00N 55°18' W 005°48'6 6.0 1017.4 10.8
2016-May-28 09:00N 55°24' W 005°48'1212.0 1017.9 12.0
2016-May-28 08:00N 55°36' W 005°48'7 6.9 1017.9 11.0
2016-May-28 07:00N 55°42' W 005°42'0 0.0 1018.2 11.0
2016-May-28 06:00N 55°42' W 005°42'0 0.0 1018.2 10.6
2016-May-28 05:00N 55°42' W 005°42'0 0.0 1018.2 10.4
2016-May-28 04:00N 55°42' W 005°42'0 0.0 1018.3 10.6
2016-May-28 03:00N 55°42' W 005°42'0 0.0 1018.3 10.5
2016-May-28 02:00N 55°42' W 005°42'0 0.0 1018.6 10.7
2016-May-28 01:00N 55°42' W 005°42'0 0.0 1018.8 11.0
2016-May-28 00:00N 55°42' W 005°42'0 0.0 1018.9 11.2
2016-May-27 23:00N 55°42' W 005°42'0 0.0 1018.8 11.3
2016-May-27 22:00N 55°42' W 005°42'0 0.0 1018.9 11.4
2016-May-27 21:00N 55°42' W 005°42'0 0.0 1019.0 11.6
2016-May-27 20:00N 55°42' W 005°42'0 0.0 1018.9 12.0
2016-May-27 19:00N 55°42' W 005°42'0 0.0 1019.1 12.3
2016-May-27 18:00N 55°42' W 005°42'0 0.0 1019.0 12.3
2016-May-27 17:00N 55°42' W 005°42'1212.5 1019.2 12.4
2016-May-27 16:00N 55°54' W 005°48'7 6.9 1019.2 11.2
2016-May-27 15:00N 56°00' W 005°42'6 6.0 1019.5 13.9
2016-May-27 14:00N 56°06' W 005°42'6 6.0 1020.0 12.6
2016-May-27 13:00N 56°12' W 005°42'14 0.8 1019.9 12.3
2016-May-26 19:00N 56°24' W 005°30'0 0.0 1018.2 14.4 8.0
2016-May-26 17:00N 56°24' W 005°30'0 0.0 1018.0 16.8 7.6
2016-May-26 16:00N 56°24' W 005°30'6 3.0 1018.0 15.9 7.2
2016-May-26 14:00N 56°30' W 005°30'0 0.0 1018.6 13.2
2016-May-26 13:00N 56°30' W 005°30'6 3.0 1018.7 13.4
2016-May-26 11:00N 56°24' W 005°30'0 0.0 1019.1 11.5 6.5
2016-May-26 07:00N 56°24' W 005°30'0 0.0 1020.1 9.7 5.7
2016-May-25 17:00N 56°24' W 005°30'0 0.0 1020.2 15.9
2016-May-25 16:00N 56°24' W 005°30'0 0.0 1020.6 15.3
2016-May-25 15:00N 56°24' W 005°30'0 0.0 1021.3 16.0 5.2
2016-May-25 14:00N 56°24' W 005°30'0 0.0 1022.0 15.7 4.3
2016-May-25 13:00N 56°24' W 005°30'0 0.0 1022.5 14.8 4.0
2016-May-25 12:00N 56°24' W 005°30'0 0.0 1023.2 13.9
2016-May-25 11:00N 56°24' W 005°30'0 0.0 1023.7 10.7
2016-May-25 10:00N 56°24' W 005°30'0 0.0 1024.2 11.2
2016-May-25 09:00N 56°24' W 005°30'0 0.0 1024.7 8.9
2016-May-25 08:00N 56°24' W 005°30'15 7.3 1025.1 8.5
2016-May-25 06:00N 56°30' W 005°54'0 0.0 1025.4 7.1
2016-May-25 05:00N 56°30' W 005°54'0 0.0 1025.4 7.0
2016-May-25 04:00N 56°30' W 005°54'0 0.0 1025.3 7.2
2016-May-25 03:00N 56°30' W 005°54'0 0.0 1025.2 7.7
2016-May-25 02:00N 56°30' W 005°54'0 0.0 1025.4 8.5
2016-May-25 01:00N 56°30' W 005°54'0 0.0 1025.2 9.2
2016-May-25 00:00N 56°30' W 005°54'0 0.0 1025.2 10.3
2016-May-24 23:00N 56°30' W 005°54'7 3.4 1025.0 11.3
2016-May-24 21:00N 56°36' W 006°00'1211.6 1024.1 13.7
2016-May-24 20:00N 56°42' W 006°18'10 9.9 1023.8 12.6
2016-May-24 19:00N 56°42' W 006°36'1211.6 1024.1 13.4
2016-May-24 18:00N 56°48' W 006°54'10 9.9 1024.4 13.4
2016-May-24 17:00N 56°48' W 007°12'1313.1 1024.6 13.7
2016-May-24 16:00N 56°48' W 007°36'1212.4 1024.9 11.8
2016-May-24 15:00N 57°00' W 007°42'1212.4 1025.3 12.2
2016-May-24 14:00N 57°12' W 007°48'7 6.8 1025.7 13.4
2016-May-24 13:00N 57°18' W 007°54'6 6.0 1025.9 11.2
2016-May-24 12:00N 57°12' W 007°54'1212.4 1025.7 11.1
2016-May-24 11:00N 57°00' W 007°48'7 6.8 1025.7 10.9
2016-May-24 10:00N 56°54' W 007°42'10 9.8 1025.5 10.4
2016-May-24 09:00N 56°54' W 007°24'3 3.3 1025.6 11.9
2016-May-24 08:00N 56°54' W 007°30'0 0.0 1025.5 11.1
2016-May-24 07:00N 56°54' W 007°30'0 0.0 1024.9 10.8
2016-May-24 06:00N 56°54' W 007°30'0 0.0 1024.6 10.5
2016-May-24 05:00N 56°54' W 007°30'0 0.0 1024.3 10.0
2016-May-24 04:00N 56°54' W 007°30'0 0.0 1024.7 9.5
2016-May-24 03:00N 56°54' W 007°30'0 0.0 1024.7 9.9
2016-May-24 02:00N 56°54' W 007°30'0 0.0 1024.7 9.6
2016-May-24 01:00N 56°54' W 007°30'0 0.0 1024.4 9.7
2016-May-24 00:00N 56°54' W 007°30'0 0.0 1024.6 9.5
2016-May-23 23:00N 56°54' W 007°30'0 0.0 1024.4 10.2
2016-May-23 22:00N 56°54' W 007°30'0 0.0 1024.4 10.4
2016-May-23 21:00N 56°54' W 007°30'0 0.0 1024.2 10.4
2016-May-23 20:00N 56°54' W 007°30'0 0.0 1023.8 10.2
2016-May-23 19:00N 56°54' W 007°30'0 0.0 1023.5 10.0
2016-May-23 18:00N 56°54' W 007°30'3 3.3 1023.1 9.9
2016-May-23 17:00N 56°54' W 007°24'10 9.8 1022.7 10.7
2016-May-23 16:00N 56°54' W 007°06'9 8.9 1022.4 10.6
2016-May-23 15:00N 56°48' W 006°54'10 9.9 1022.3 10.9
2016-May-23 14:00N 56°48' W 006°36'1211.6 1022.0 10.9
2016-May-23 13:00N 56°42' W 006°18'9 8.9 1021.4 10.8
2016-May-23 12:00N 56°36' W 006°06'9 8.9 1020.8 11.0
2016-May-23 11:00N 56°30' W 005°54'7 6.6 1020.2 11.7
2016-May-23 10:00N 56°30' W 005°42'9 2.2 1019.9 10.6
2016-May-23 06:00N 56°24' W 005°30'0 0.0 1017.7 8.1 6.3
2016-May-23 04:00N 56°24' W 005°30'0 0.0 1016.5 7.7 5.3
2016-May-22 17:00N 56°24' W 005°30'0 0.0 1008.9 13.2 7.9
2016-May-22 16:00N 56°24' W 005°30'0 0.0 1008.3 14.2 7.0
2016-May-22 09:00N 56°24' W 005°30'0 0.0 1004.9 12.5 7.6
2016-May-22 07:00N 56°24' W 005°30'   1004.0 10.6 8.1
Track history (hours):
 
Tides and Currents Weather Stations Pressure Air Temp Water Temp Dewpoint Dewpoint Depression Visibility Wind Speed Wind Dir Waves Ship Positions

Callsign AMOUK35 (name unknown)

Last reported at 2016-May-31 21:00 UTC. Time now 2016-May-31 21:57 UTC.
Position N 57°00' W 007°18'.

Barometer 1029.0 mb
Air temperature 10.0 ° C

Date/timePositionNaut miles runAvg speedWind from/ knotsBaromVisibWave heightAir tempDewpointWater temp
2016-May-31 21:00N 57°00' W 007°18'0 0.0 1029.0 10.0
2016-May-31 20:00N 57°00' W 007°18'0 0.0 1028.3 10.3
2016-May-31 19:00N 57°00' W 007°18'0 0.0 1029.1 10.8
2016-May-31 18:00N 57°00' W 007°18'0 0.0 1028.5 10.9
2016-May-31 17:00N 57°00' W 007°18'6 6.0 1027.2 10.5
2016-May-31 16:00N 56°54' W 007°18'1212.0 1027.1 10.8
2016-May-31 15:00N 56°42' W 007°18'1212.0 1027.3 11.0
2016-May-31 14:00N 56°30' W 007°18'6 6.0 1027.6 11.0
2016-May-31 13:00N 56°24' W 007°18'1212.5 1028.0 10.9
2016-May-31 12:00N 56°12' W 007°12'9 9.0 1027.5 10.8
2016-May-31 11:00N 56°06' W 007°00'7 6.9 1026.7 10.9
2016-May-31 10:00N 56°00' W 006°54'1413.8 1026.6 11.1
2016-May-31 09:00N 55°48' W 006°42'9 9.0 1026.5 10.6
2016-May-31 08:00N 55°42' W 006°30'3 3.4 1026.2 10.6
2016-May-31 07:00N 55°42' W 006°24'0 0.0 1026.2 11.3
2016-May-31 06:00N 55°42' W 006°24'0 0.0 1025.9 10.7
2016-May-31 05:00N 55°42' W 006°24'0 0.0 1025.4 10.5
2016-May-31 04:00N 55°42' W 006°24'0 0.0 1025.2 10.2
2016-May-31 03:00N 55°42' W 006°24'0 0.0 1025.3 10.2
2016-May-31 02:00N 55°42' W 006°24'0 0.0 1025.3 10.7
2016-May-31 01:00N 55°42' W 006°24'0 0.0 1025.2 10.8
2016-May-31 00:00N 55°42' W 006°24'0 0.0 1025.1 11.0
2016-May-30 23:00N 55°42' W 006°24'0 0.0 1025.1 11.1
2016-May-30 22:00N 55°42' W 006°24'0 0.0 1025.0 11.6
2016-May-30 21:00N 55°42' W 006°24'0 0.0 1024.6 12.2
2016-May-30 20:00N 55°42' W 006°24'0 0.0 1024.3 13.1
2016-May-30 19:00N 55°42' W 006°24'0 0.0 1024.0 13.7
2016-May-30 18:00N 55°42' W 006°24'6 6.0 1023.9 14.4
2016-May-30 17:00N 55°36' W 006°24'9 9.1 1023.7 11.9
2016-May-30 16:00N 55°30' W 006°12'9 9.1 1023.2 13.6
2016-May-30 15:00N 55°24' W 006°00'7 6.9 1023.2 11.5
2016-May-30 14:00N 55°18' W 005°54'7 6.8 1023.8 10.6
2016-May-30 13:00N 55°18' W 005°42'1010.2 1023.1 10.9
2016-May-30 12:00N 55°18' W 005°24'9 9.1 1023.3 12.3
2016-May-30 11:00N 55°24' W 005°12'1010.2 1023.2 12.1
2016-May-30 10:00N 55°24' W 004°54'9 9.1 1022.5 11.5
2016-May-30 09:00N 55°30' W 004°42'0 0.0 1022.1 14.5
2016-May-30 08:00N 55°30' W 004°42'0 0.0 1022.1 12.6
2016-May-30 07:00N 55°30' W 004°42'0 0.0 1021.7 9.8
2016-May-30 06:00N 55°30' W 004°42'0 0.0 1021.3 9.0
2016-May-30 05:00N 55°30' W 004°42'0 0.0 1021.1 9.1
2016-May-30 04:00N 55°30' W 004°42'0 0.0 1020.7 9.7
2016-May-30 03:00N 55°30' W 004°42'0 0.0 1020.5 10.1
2016-May-30 02:00N 55°30' W 004°42'0 0.0 1020.4 10.6
2016-May-30 01:00N 55°30' W 004°42'0 0.0 1020.3 11.4
2016-May-30 00:00N 55°30' W 004°42'0 0.0 1020.1 11.6
2016-May-29 23:00N 55°30' W 004°42'0 0.0 1019.7 12.2
2016-May-29 22:00N 55°30' W 004°42'0 0.0 1019.1 13.2
2016-May-29 21:00N 55°30' W 004°42'0 0.0 1018.6 13.4
2016-May-29 20:00N 55°30' W 004°42'0 0.0 1018.1 15.8
2016-May-29 19:00N 55°30' W 004°42'0 0.0 1017.7 15.3
2016-May-29 18:00N 55°30' W 004°42'7 6.8 1017.4 14.8
2016-May-29 17:00N 55°30' W 004°54'9 9.1 1017.4 17.3
2016-May-29 16:00N 55°24' W 005°06'0 0.0 1017.6 14.2
2016-May-29 15:00N 55°24' W 005°06'0 0.0 1017.7 14.1
2016-May-29 14:00N 55°24' W 005°06'0 0.0 1017.9 14.3
2016-May-29 13:00N 55°24' W 005°06'0 0.0 1017.8 13.0
2016-May-29 12:00N 55°24' W 005°06'1010.2 1017.5 11.2
2016-May-29 11:00N 55°24' W 005°24'3 3.4 1017.5 10.7
2016-May-29 10:00N 55°24' W 005°30'0 0.0 1017.3 11.1
2016-May-29 09:00N 55°24' W 005°30'0 0.0 1017.2 12.7
2016-May-29 08:00N 55°24' W 005°30'0 0.0 1016.9 12.3
2016-May-29 07:00N 55°24' W 005°30'0 0.0 1016.6 12.5
2016-May-29 06:00N 55°24' W 005°30'0 0.0 1016.2 13.3
2016-May-29 05:00N 55°24' W 005°30'0 0.0 1016.0 11.0
2016-May-29 04:00N 55°24' W 005°30'0 0.0 1015.9 10.0
2016-May-29 03:00N 55°24' W 005°30'0 0.0 1015.9 10.1
2016-May-29 02:00N 55°24' W 005°30'0 0.0 1016.0 10.1
2016-May-29 01:00N 55°24' W 005°30'0 0.0 1016.3 10.2
2016-May-29 00:00N 55°24' W 005°30'0 0.0 1016.5 11.0
2016-May-28 23:00N 55°24' W 005°30'0 0.0 1016.4 11.4
2016-May-28 22:00N 55°24' W 005°30'0 0.0 1016.4 12.0
2016-May-28 21:00N 55°24' W 005°30'0 0.0 1016.2 12.6
2016-May-28 20:00N 55°24' W 005°30'0 0.0 1015.9 13.4
2016-May-28 19:00N 55°24' W 005°30'0 0.0 1016.0 13.6
2016-May-28 18:00N 55°24' W 005°30'0 0.0 1015.9 13.7
2016-May-28 17:00N 55°24' W 005°30'0 0.0 1015.9 13.8
2016-May-28 16:00N 55°24' W 005°30'0 0.0 1016.5 13.6
2016-May-28 15:00N 55°24' W 005°30'7 6.9 1016.7 12.4
2016-May-28 14:00N 55°18' W 005°36'0 0.0 1017.1 11.8
2016-May-28 13:00N 55°18' W 005°36'0 0.0 1017.4 11.5
2016-May-28 12:00N 55°18' W 005°36'0 0.0 1017.5 11.7
2016-May-28 11:00N 55°18' W 005°36'7 6.8 1017.6 11.0
2016-May-28 10:00N 55°18' W 005°48'6 6.0 1017.4 10.8
2016-May-28 09:00N 55°24' W 005°48'1212.0 1017.9 12.0
2016-May-28 08:00N 55°36' W 005°48'7 6.9 1017.9 11.0
2016-May-28 07:00N 55°42' W 005°42'0 0.0 1018.2 11.0
2016-May-28 06:00N 55°42' W 005°42'0 0.0 1018.2 10.6
2016-May-28 05:00N 55°42' W 005°42'0 0.0 1018.2 10.4
2016-May-28 04:00N 55°42' W 005°42'0 0.0 1018.3 10.6
2016-May-28 03:00N 55°42' W 005°42'0 0.0 1018.3 10.5
2016-May-28 02:00N 55°42' W 005°42'0 0.0 1018.6 10.7
2016-May-28 01:00N 55°42' W 005°42'0 0.0 1018.8 11.0
2016-May-28 00:00N 55°42' W 005°42'0 0.0 1018.9 11.2
2016-May-27 23:00N 55°42' W 005°42'0 0.0 1018.8 11.3
2016-May-27 22:00N 55°42' W 005°42'0 0.0 1018.9 11.4
2016-May-27 21:00N 55°42' W 005°42'0 0.0 1019.0 11.6
2016-May-27 20:00N 55°42' W 005°42'0 0.0 1018.9 12.0
2016-May-27 19:00N 55°42' W 005°42'0 0.0 1019.1 12.3
2016-May-27 18:00N 55°42' W 005°42'0 0.0 1019.0 12.3
2016-May-27 17:00N 55°42' W 005°42'1212.5 1019.2 12.4
2016-May-27 16:00N 55°54' W 005°48'7 6.9 1019.2 11.2
2016-May-27 15:00N 56°00' W 005°42'6 6.0 1019.5 13.9
2016-May-27 14:00N 56°06' W 005°42'6 6.0 1020.0 12.6
2016-May-27 13:00N 56°12' W 005°42'14 0.8 1019.9 12.3
2016-May-26 19:00N 56°24' W 005°30'0 0.0 1018.2 14.4 8.0
2016-May-26 17:00N 56°24' W 005°30'0 0.0 1018.0 16.8 7.6
2016-May-26 16:00N 56°24' W 005°30'6 3.0 1018.0 15.9 7.2
2016-May-26 14:00N 56°30' W 005°30'0 0.0 1018.6 13.2
2016-May-26 13:00N 56°30' W 005°30'6 3.0 1018.7 13.4
2016-May-26 11:00N 56°24' W 005°30'0 0.0 1019.1 11.5 6.5
2016-May-26 07:00N 56°24' W 005°30'0 0.0 1020.1 9.7 5.7
2016-May-25 17:00N 56°24' W 005°30'0 0.0 1020.2 15.9
2016-May-25 16:00N 56°24' W 005°30'0 0.0 1020.6 15.3
2016-May-25 15:00N 56°24' W 005°30'0 0.0 1021.3 16.0 5.2
2016-May-25 14:00N 56°24' W 005°30'0 0.0 1022.0 15.7 4.3
2016-May-25 13:00N 56°24' W 005°30'0 0.0 1022.5 14.8 4.0
2016-May-25 12:00N 56°24' W 005°30'0 0.0 1023.2 13.9
2016-May-25 11:00N 56°24' W 005°30'0 0.0 1023.7 10.7
2016-May-25 10:00N 56°24' W 005°30'0 0.0 1024.2 11.2
2016-May-25 09:00N 56°24' W 005°30'0 0.0 1024.7 8.9
2016-May-25 08:00N 56°24' W 005°30'15 7.3 1025.1 8.5
2016-May-25 06:00N 56°30' W 005°54'0 0.0 1025.4 7.1
2016-May-25 05:00N 56°30' W 005°54'0 0.0 1025.4 7.0
2016-May-25 04:00N 56°30' W 005°54'0 0.0 1025.3 7.2
2016-May-25 03:00N 56°30' W 005°54'0 0.0 1025.2 7.7
2016-May-25 02:00N 56°30' W 005°54'0 0.0 1025.4 8.5
2016-May-25 01:00N 56°30' W 005°54'0 0.0 1025.2 9.2
2016-May-25 00:00N 56°30' W 005°54'0 0.0 1025.2 10.3
2016-May-24 23:00N 56°30' W 005°54'7 3.4 1025.0 11.3
2016-May-24 21:00N 56°36' W 006°00'1211.6 1024.1 13.7
2016-May-24 20:00N 56°42' W 006°18'10 9.9 1023.8 12.6
2016-May-24 19:00N 56°42' W 006°36'1211.6 1024.1 13.4
2016-May-24 18:00N 56°48' W 006°54'10 9.9 1024.4 13.4
2016-May-24 17:00N 56°48' W 007°12'1313.1 1024.6 13.7
2016-May-24 16:00N 56°48' W 007°36'1212.4 1024.9 11.8
2016-May-24 15:00N 57°00' W 007°42'1212.4 1025.3 12.2
2016-May-24 14:00N 57°12' W 007°48'7 6.8 1025.7 13.4
2016-May-24 13:00N 57°18' W 007°54'6 6.0 1025.9 11.2
2016-May-24 12:00N 57°12' W 007°54'1212.4 1025.7 11.1
2016-May-24 11:00N 57°00' W 007°48'7 6.8 1025.7 10.9
2016-May-24 10:00N 56°54' W 007°42'10 9.8 1025.5 10.4
2016-May-24 09:00N 56°54' W 007°24'3 3.3 1025.6 11.9
2016-May-24 08:00N 56°54' W 007°30'0 0.0 1025.5 11.1
2016-May-24 07:00N 56°54' W 007°30'0 0.0 1024.9 10.8
2016-May-24 06:00N 56°54' W 007°30'0 0.0 1024.6 10.5
2016-May-24 05:00N 56°54' W 007°30'0 0.0 1024.3 10.0
2016-May-24 04:00N 56°54' W 007°30'0 0.0 1024.7 9.5
2016-May-24 03:00N 56°54' W 007°30'0 0.0 1024.7 9.9
2016-May-24 02:00N 56°54' W 007°30'0 0.0 1024.7 9.6
2016-May-24 01:00N 56°54' W 007°30'0 0.0 1024.4 9.7
2016-May-24 00:00N 56°54' W 007°30'0 0.0 1024.6 9.5
2016-May-23 23:00N 56°54' W 007°30'0 0.0 1024.4 10.2
2016-May-23 22:00N 56°54' W 007°30'0 0.0 1024.4 10.4
2016-May-23 21:00N 56°54' W 007°30'0 0.0 1024.2 10.4
2016-May-23 20:00N 56°54' W 007°30'0 0.0 1023.8 10.2
2016-May-23 19:00N 56°54' W 007°30'0 0.0 1023.5 10.0
2016-May-23 18:00N 56°54' W 007°30'3 3.3 1023.1 9.9
2016-May-23 17:00N 56°54' W 007°24'10 9.8 1022.7 10.7
2016-May-23 16:00N 56°54' W 007°06'9 8.9 1022.4 10.6
2016-May-23 15:00N 56°48' W 006°54'10 9.9 1022.3 10.9
2016-May-23 14:00N 56°48' W 006°36'1211.6 1022.0 10.9
2016-May-23 13:00N 56°42' W 006°18'9 8.9 1021.4 10.8
2016-May-23 12:00N 56°36' W 006°06'9 8.9 1020.8 11.0
2016-May-23 11:00N 56°30' W 005°54'7 6.6 1020.2 11.7
2016-May-23 10:00N 56°30' W 005°42'9 2.2 1019.9 10.6
2016-May-23 06:00N 56°24' W 005°30'0 0.0 1017.7 8.1 6.3
2016-May-23 04:00N 56°24' W 005°30'0 0.0 1016.5 7.7 5.3
2016-May-22 17:00N 56°24' W 005°30'0 0.0 1008.9 13.2 7.9
2016-May-22 16:00N 56°24' W 005°30'0 0.0 1008.3 14.2 7.0
2016-May-22 09:00N 56°24' W 005°30'0 0.0 1004.9 12.5 7.6
2016-May-22 07:00N 56°24' W 005°30'   1004.0 10.6 8.1

Dump ship's entire track history